Time;durP1;ratioP1;P1;durP2;ratioP2;P2;SDS_P1;SDS_P2;PMS_P1;PMS_P2;Temp;Humidity;BMP_temperature;BMP_pressure;BME280_temperature;BME280_humidity;BME280_pressure;Samples;Min_cycle;Max_cycle;Signal;HPM_P1;HPM_P2
2023/10/30 00:00:54;;;;;;;4.40;0.70;;;;;;;14.38;100.00;98260.31;4485660;31;20093;-81
2023/10/30 00:03:21;;;;;;;3.10;0.70;;;;;;;14.46;100.00;98267.34;4484266;32;20116;-81
2023/10/30 00:05:49;;;;;;;3.97;0.90;;;;;;;14.53;100.00;98263.87;4485643;32;20115;-80
2023/10/30 00:08:16;;;;;;;1.87;0.80;;;;;;;14.60;100.00;98271.87;4485668;32;20092;-81
2023/10/30 00:10:45;;;;;;;4.85;1.10;;;;;;;14.62;100.00;98269.91;4485660;31;20096;-81
2023/10/30 00:13:12;;;;;;;2.58;0.65;;;;;;;14.63;100.00;98274.19;4485587;31;20165;-81
2023/10/30 00:15:39;;;;;;;3.95;0.80;;;;;;;14.72;100.00;98280.25;4484801;32;20088;-81
2023/10/30 00:18:06;;;;;;;2.55;0.68;;;;;;;14.77;100.00;98284.97;4470121;32;20458;-80
2023/10/30 00:20:37;;;;;;;5.50;1.15;;;;;;;14.81;100.00;98281.81;4469675;32;20097;-80
2023/10/30 00:23:04;;;;;;;15.30;0.93;;;;;;;14.66;100.00;98284.41;4469851;32;20100;-80
2023/10/30 00:25:31;;;;;;;4.35;0.80;;;;;;;14.79;100.00;98282.97;4469957;32;20115;-80
2023/10/30 00:28:00;;;;;;;2.70;0.80;;;;;;;14.75;100.00;98279.88;4474795;32;20096;-80
2023/10/30 00:30:27;;;;;;;3.92;1.10;;;;;;;14.66;100.00;98276.47;4485555;31;20092;-80
2023/10/30 00:32:57;;;;;;;2.45;0.70;;;;;;;14.65;100.00;98279.28;4485531;32;20089;-80
2023/10/30 00:35:24;;;;;;;5.47;0.80;;;;;;;14.53;100.00;98281.47;4485281;31;20449;-81
2023/10/30 00:37:51;;;;;;;1.62;0.70;;;;;;;14.45;100.00;98274.44;4485857;31;20103;-81
2023/10/30 00:40:20;;;;;;;2.20;0.70;;;;;;;14.40;100.00;98270.69;4485749;32;20096;-80
2023/10/30 00:42:47;;;;;;;3.83;0.90;;;;;;;14.30;100.00;98271.72;4485329;31;20092;-81
2023/10/30 00:45:15;;;;;;;6.55;1.20;;;;;;;14.28;100.00;98271.09;4485516;32;20126;-81
2023/10/30 00:47:42;;;;;;;5.25;0.93;;;;;;;14.30;100.00;98265.66;4485312;32;20456;-81
2023/10/30 00:50:09;;;;;;;3.28;0.90;;;;;;;14.20;100.00;98261.41;4485419;31;20088;-81
2023/10/30 00:52:36;;;;;;;4.65;1.10;;;;;;;14.15;100.00;98262.91;4485367;31;20100;-81
2023/10/30 00:55:04;;;;;;;1.40;0.90;;;;;;;14.17;100.00;98253.03;4485475;31;20080;-81
2023/10/30 00:57:31;;;;;;;5.28;0.88;;;;;;;14.17;100.00;98255.66;4485167;31;20152;-81
2023/10/30 00:59:59;;;;;;;1.85;0.77;;;;;;;14.07;100.00;98250.63;4485428;32;20534;-81
2023/10/30 01:02:26;;;;;;;2.10;0.80;;;;;;;14.07;100.00;98260.34;4485257;31;20157;-81
2023/10/30 01:04:54;;;;;;;3.47;0.90;;;;;;;14.02;100.00;98255.59;4485327;31;20586;-81
2023/10/30 01:07:21;;;;;;;3.53;1.08;;;;;;;13.97;100.00;98250.84;4485235;31;20547;-81
2023/10/30 01:09:49;;;;;;;4.53;0.90;;;;;;;13.99;100.00;98243.56;4485287;32;20525;-80
2023/10/30 01:12:16;;;;;;;2.85;0.75;;;;;;;13.92;100.00;98241.81;4485465;32;20156;-80
2023/10/30 01:14:43;;;;;;;1.87;0.75;;;;;;;13.91;100.00;98246.22;4485061;32;20096;-81
2023/10/30 01:17:11;;;;;;;2.92;0.82;;;;;;;13.91;100.00;98240.97;4474345;32;20450;-81
2023/10/30 01:19:39;;;;;;;2.17;1.00;;;;;;;13.87;100.00;98238.84;4469500;32;20431;-81
2023/10/30 01:22:06;;;;;;;3.05;1.30;;;;;;;13.88;100.00;98240.50;4469348;32;20169;-81
2023/10/30 01:24:34;;;;;;;1.48;0.65;;;;;;;13.81;100.00;98245.63;4469483;32;20118;-80
2023/10/30 01:27:01;;;;;;;4.70;0.93;;;;;;;13.93;100.00;98239.00;4469326;32;20085;-81
2023/10/30 01:29:28;;;;;;;2.22;0.70;;;;;;;13.89;100.00;98242.97;4484026;32;20188;-81
2023/10/30 01:31:55;;;;;;;1.42;0.62;;;;;;;13.84;100.00;98238.22;4484987;31;20089;-81
2023/10/30 01:34:23;;;;;;;9.35;3.03;;;;;;;13.85;100.00;98246.91;4484792;32;20115;-81
2023/10/30 01:36:50;;;;;;;1.60;0.90;;;;;;;13.81;100.00;98238.56;4484957;32;20156;-80
2023/10/30 01:39:18;;;;;;;3.25;0.95;;;;;;;13.81;100.00;98238.56;4485127;32;20104;-80
2023/10/30 01:41:45;;;;;;;1.50;0.60;;;;;;;13.85;100.00;98239.00;4484985;31;20163;-80
2023/10/30 01:44:12;;;;;;;3.08;0.80;;;;;;;13.82;100.00;98242.00;4485133;31;20191;-80
2023/10/30 01:46:40;;;;;;;3.92;0.77;;;;;;;13.84;100.00;98240.84;4484921;31;20208;-80
2023/10/30 01:49:07;;;;;;;3.03;0.90;;;;;;;13.90;100.00;98234.06;4484276;32;20591;-80
2023/10/30 01:51:35;;;;;;;3.78;1.02;;;;;;;13.97;100.00;98237.66;4484970;31;20112;-80
2023/10/30 01:54:02;;;;;;;3.40;0.85;;;;;;;13.98;100.00;98241.94;4484667;32;20104;-81
2023/10/30 01:56:30;;;;;;;14.77;3.08;;;;;;;14.02;100.00;98231.88;4483435;32;20160;-80
2023/10/30 01:58:58;;;;;;;1.85;0.70;;;;;;;14.12;100.00;98236.94;4485066;31;20096;-81
2023/10/30 02:01:26;;;;;;;3.78;0.75;;;;;;;14.20;100.00;98227.16;4484906;31;20101;-80
2023/10/30 02:03:55;;;;;;;3.40;0.73;;;;;;;14.27;100.00;98224.66;4484800;31;20505;-81
2023/10/30 02:06:22;;;;;;;2.08;0.73;;;;;;;14.35;100.00;98232.53;4483632;32;20160;-81
2023/10/30 02:08:50;;;;;;;3.85;0.93;;;;;;;14.27;100.00;98222.00;4484604;32;20447;-80
2023/10/30 02:11:18;;;;;;;2.40;0.80;;;;;;;14.20;100.00;98223.69;4485117;31;20092;-81
2023/10/30 02:13:54;;;;;;;1.73;0.90;;;;;;;14.32;100.00;98226.75;4484574;32;20157;-81
2023/10/30 02:16:23;;;;;;;3.28;0.70;;;;;;;14.29;100.00;98225.31;4479594;31;20145;-81
2023/10/30 02:18:51;;;;;;;2.30;0.93;;;;;;;14.32;100.00;98218.84;4468975;32;20116;-81
2023/10/30 02:21:19;;;;;;;2.22;0.90;;;;;;;14.21;100.00;98214.81;4469029;32;20085;-81
2023/10/30 02:23:47;;;;;;;3.42;1.10;;;;;;;14.23;100.00;98220.75;4467740;32;20127;-81
2023/10/30 02:26:14;;;;;;;3.30;0.70;;;;;;;14.28;100.00;98220.22;4469070;32;20461;-81
2023/10/30 02:28:41;;;;;;;6.93;1.23;;;;;;;14.22;100.00;98216.47;4478346;32;20096;-81
2023/10/30 02:31:10;;;;;;;1.25;0.70;;;;;;;14.46;100.00;98215.47;4484913;32;20119;-81
2023/10/30 02:33:44;;;;;;;8.60;0.75;;;;;;;14.40;100.00;98217.97;4484896;31;20110;-81
2023/10/30 02:36:12;;;;;;;4.35;1.00;;;;;;;14.27;100.00;98219.38;4484418;32;20408;-80
2023/10/30 02:38:40;;;;;;;2.72;0.88;;;;;;;14.32;100.00;98226.75;4484523;32;20097;-80
2023/10/30 02:41:07;;;;;;;2.17;1.08;;;;;;;14.21;100.00;98220.06;4484660;32;20431;-80
2023/10/30 02:43:35;;;;;;;3.90;0.90;;;;;;;14.25;100.00;98225.84;4484698;32;20527;-80
2023/10/30 02:46:05;;;;;;;3.25;0.73;;;;;;;14.13;100.00;98220.94;4484485;31;20477;-81
2023/10/30 02:48:33;;;;;;;5.15;0.85;;;;;;;14.13;100.00;98228.03;4484351;31;20092;-81
2023/10/30 02:51:00;;;;;;;6.30;1.15;;;;;;;14.04;100.00;98232.53;4484577;32;20096;-81
2023/10/30 02:53:27;;;;;;;5.37;1.00;;;;;;;13.98;100.00;98236.66;4484441;32;20093;-80
2023/10/30 02:55:55;;;;;;;4.53;1.50;;;;;;;13.96;100.00;98235.19;4484332;31;20104;-80
2023/10/30 02:58:23;;;;;;;3.22;1.25;;;;;;;13.98;100.00;98234.03;4484207;31;20092;-80
2023/10/30 03:00:54;;;;;;;5.28;0.90;;;;;;;14.06;100.00;98227.09;4484367;32;20163;-81
2023/10/30 03:03:21;;;;;;;4.78;1.00;;;;;;;13.94;100.00;98235.34;4484382;31;20092;-80
2023/10/30 03:05:50;;;;;;;4.18;2.53;;;;;;;13.96;100.00;98233.37;4484280;32;20121;-80
2023/10/30 03:08:18;;;;;;;2.03;0.80;;;;;;;14.00;100.00;98229.44;4484289;32;20557;-80
2023/10/30 03:10:46;;;;;;;2.20;0.80;;;;;;;14.01;100.00;98220.50;4484284;31;20093;-80
2023/10/30 03:13:14;;;;;;;1.20;0.80;;;;;;;13.93;100.00;98233.72;4484314;31;20130;-81
2023/10/30 03:15:46;;;;;;;5.72;0.85;;;;;;;13.91;100.00;98230.44;4483170;32;20110;-81
2023/10/30 03:18:13;;;;;;;4.05;0.88;;;;;;;13.95;100.00;98237.00;4468746;32;20100;-81
2023/10/30 03:20:41;;;;;;;3.75;1.00;;;;;;;13.97;100.00;98232.41;4468593;32;20583;-81
2023/10/30 03:23:09;;;;;;;2.70;0.82;;;;;;;13.99;100.00;98232.22;4468590;32;20161;-80
2023/10/30 03:25:36;;;;;;;3.05;0.80;;;;;;;14.04;100.00;98231.72;4468417;32;20493;-80
2023/10/30 03:28:04;;;;;;;1.35;0.60;;;;;;;14.09;100.00;98237.28;4473910;32;20112;-80
2023/10/30 03:30:35;;;;;;;2.72;0.90;;;;;;;14.13;100.00;98235.94;4484084;31;20096;-80
2023/10/30 03:33:04;;;;;;;2.37;0.82;;;;;;;14.14;100.00;98240.19;4484023;31;20111;-80
2023/10/30 03:35:36;;;;;;;3.65;0.80;;;;;;;14.11;100.00;98235.28;4483449;31;20114;-80
2023/10/30 03:38:03;;;;;;;5.15;0.85;;;;;;;14.04;100.00;98239.63;4483948;31;20132;-80
2023/10/30 03:40:31;;;;;;;5.78;0.73;;;;;;;13.92;100.00;98239.16;4483944;32;20759;-80
2023/10/30 03:43:00;;;;;;;2.40;0.80;;;;;;;13.89;100.00;98232.44;4484189;32;20492;-80
2023/10/30 03:45:28;;;;;;;5.30;1.20;;;;;;;13.90;100.00;98238.50;4483598;32;20458;-80
2023/10/30 03:47:55;;;;;;;6.57;1.48;;;;;;;13.91;100.00;98238.31;4483930;32;20107;-81
2023/10/30 03:50:25;;;;;;;2.83;0.60;;;;;;;13.85;100.00;98239.00;4483627;32;20831;-80
2023/10/30 03:52:52;;;;;;;2.62;0.90;;;;;;;13.83;100.00;98233.91;4483866;32;20732;-80
2023/10/30 03:55:20;;;;;;;2.37;1.00;;;;;;;13.80;100.00;98236.91;4483698;32;20092;-80
2023/10/30 03:57:47;;;;;;;3.12;0.80;;;;;;;13.79;100.00;98231.81;4483509;31;20105;-80
2023/10/30 04:00:18;;;;;;;3.67;0.82;;;;;;;13.71;100.00;98234.47;4483764;32;20111;-80
2023/10/30 04:02:45;;;;;;;3.33;1.23;;;;;;;13.68;100.00;98240.09;4483655;31;20454;-81
2023/10/30 04:05:13;;;;;;;3.55;0.90;;;;;;;13.70;100.00;98235.47;4483459;32;20092;-80
2023/10/30 04:07:40;;;;;;;3.55;1.05;;;;;;;13.74;100.00;98231.50;4483646;31;20247;-80
2023/10/30 04:10:08;;;;;;;1.00;0.65;;;;;;;13.77;100.00;98220.62;4483428;32;20126;-80
2023/10/30 04:12:35;;;;;;;1.67;0.70;;;;;;;13.78;100.00;98231.00;4485447;31;20100;-80
2023/10/30 04:15:03;;;;;;;5.28;0.80;;;;;;;13.75;100.00;98225.25;4485641;31;20092;-80
2023/10/30 04:17:31;;;;;;;3.33;0.90;;;;;;;13.72;100.00;98226.41;4472773;32;20127;-80
2023/10/30 04:19:58;;;;;;;3.47;1.00;;;;;;;13.72;100.00;98221.16;4469867;32;20097;-80
2023/10/30 04:22:25;;;;;;;2.53;0.70;;;;;;;13.69;100.00;98228.53;4469937;32;20096;-80
2023/10/30 04:24:53;;;;;;;3.78;0.80;;;;;;;13.66;100.00;98227.09;4469742;32;20096;-80
2023/10/30 04:27:21;;;;;;;2.62;0.80;;;;;;;13.61;100.00;98230.25;4470472;32;20124;-80
2023/10/30 04:29:48;;;;;;;3.90;0.80;;;;;;;13.56;100.00;98229.91;4485376;31;20151;-80
2023/10/30 04:32:16;;;;;;;3.87;0.85;;;;;;;13.56;100.00;98237.81;4485961;32;20569;-80
2023/10/30 04:34:46;;;;;;;6.20;1.23;;;;;;;13.57;100.00;98234.19;4485389;32;20092;-80
2023/10/30 04:37:14;;;;;;;1.70;0.70;;;;;;;13.54;100.00;98234.53;4485471;32;20084;-80
2023/10/30 04:39:43;;;;;;;3.12;0.80;;;;;;;13.51;100.00;98229.59;4485412;32;20619;-80
2023/10/30 04:42:11;;;;;;;2.37;0.70;;;;;;;13.55;100.00;98230.91;4485471;32;20118;-80
2023/10/30 04:44:39;;;;;;;5.32;0.88;;;;;;;13.50;100.00;98227.97;4485337;31;20604;-80
2023/10/30 04:47:07;;;;;;;3.47;0.90;;;;;;;13.56;100.00;98221.22;4485315;32;20101;-80
2023/10/30 04:49:36;;;;;;;2.83;1.08;;;;;;;13.49;100.00;98218.44;4485405;31;20135;-81
2023/10/30 04:52:04;;;;;;;1.42;0.80;;;;;;;13.45;100.00;98231.09;4485372;31;20092;-81
2023/10/30 04:54:32;;;;;;;5.53;1.00;;;;;;;13.50;100.00;98238.47;4485316;31;20076;-81
2023/10/30 04:57:00;;;;;;;7.72;1.35;;;;;;;13.50;100.00;98238.47;4485209;32;20118;-80
2023/10/30 04:59:32;;;;;;;4.62;0.95;;;;;;;13.29;100.00;98234.56;4485257;32;20096;-80
2023/10/30 05:02:01;;;;;;;7.25;1.10;;;;;;;13.21;100.00;98231.94;4484087;32;20130;-80
2023/10/30 05:04:29;;;;;;;4.82;0.98;;;;;;;13.24;100.00;98236.88;4485029;31;20088;-80
2023/10/30 05:06:56;;;;;;;5.62;1.02;;;;;;;13.18;100.00;98234.91;4483948;32;20084;-80
2023/10/30 05:09:24;;;;;;;3.60;1.02;;;;;;;13.22;100.00;98233.59;4485102;32;20101;-80
2023/10/30 05:11:51;;;;;;;4.40;1.00;;;;;;;13.21;100.00;98234.56;4485534;31;20084;-80
2023/10/30 05:14:19;;;;;;;4.03;0.88;;;;;;;13.04;100.00;98235.59;4485202;32;20427;-80
2023/10/30 05:16:47;;;;;;;3.87;0.93;;;;;;;13.11;100.00;98239.19;4475542;32;20496;-77
2023/10/30 05:19:16;;;;;;;2.22;1.00;;;;;;;13.11;100.00;98240.03;4469239;32;20152;-80
2023/10/30 05:21:43;;;;;;;4.35;1.08;;;;;;;13.14;100.00;98242.31;4469160;32;20123;-80
2023/10/30 05:24:11;;;;;;;6.32;1.12;;;;;;;13.11;100.00;98247.06;4468185;32;20088;-80
2023/10/30 05:26:38;;;;;;;3.70;1.20;;;;;;;13.05;100.00;98253.00;4467994;32;20093;-79
2023/10/30 05:29:05;;;;;;;8.20;2.00;;;;;;;13.05;100.00;98247.75;4481604;32;20108;-79
2023/10/30 05:31:33;;;;;;;7.40;1.30;;;;;;;13.02;100.00;98251.53;4485075;32;20155;-80
2023/10/30 05:34:00;;;;;;;1.73;0.82;;;;;;;12.99;100.00;98257.13;4482125;32;85472;-79
2023/10/30 05:36:27;;;;;;;3.55;0.95;;;;;;;12.97;100.00;98253.81;4484890;32;20116;-80
2023/10/30 05:38:55;;;;;;;3.28;0.65;;;;;;;12.96;100.00;98257.47;4484708;32;20447;-80
2023/10/30 05:41:22;;;;;;;1.83;1.10;;;;;;;13.08;100.00;98265.81;4484966;32;20095;-80
2023/10/30 05:43:50;;;;;;;4.65;1.05;;;;;;;13.28;100.00;98261.84;4485402;32;20474;-80
2023/10/30 05:46:17;;;;;;;4.80;1.00;;;;;;;13.31;100.00;98268.59;4485143;32;20096;-79
2023/10/30 05:48:45;;;;;;;2.47;0.70;;;;;;;13.27;100.00;98272.53;4485254;31;20097;-80
2023/10/30 05:51:12;;;;;;;2.08;1.02;;;;;;;13.24;100.00;98268.44;4483228;32;20108;-79
2023/10/30 05:53:41;;;;;;;3.78;0.98;;;;;;;13.21;100.00;98274.03;4485045;31;20118;-80
2023/10/30 05:56:09;;;;;;;2.22;1.27;;;;;;;13.22;100.00;98275.69;4484497;31;20509;-80
2023/10/30 05:58:38;;;;;;;3.72;0.95;;;;;;;13.44;100.00;98281.25;4481363;32;20127;-79
2023/10/30 06:01:06;;;;;;;7.90;0.90;;;;;;;13.49;100.00;98273.69;4484710;32;20104;-80
2023/10/30 06:03:34;;;;;;;2.92;0.80;;;;;;;13.54;100.00;98278.47;4484741;31;20080;-80
2023/10/30 06:06:04;;;;;;;3.50;0.68;;;;;;;13.58;100.00;98277.94;4485277;31;20104;-80
2023/10/30 06:08:32;;;;;;;2.28;0.80;;;;;;;13.55;100.00;98282.72;4484729;31;20801;-80
2023/10/30 06:11:00;;;;;;;1.83;0.80;;;;;;;13.60;100.00;98286.50;4484858;31;20175;-80
2023/10/30 06:13:28;;;;;;;3.60;1.12;;;;;;;13.70;100.00;98277.56;4484441;31;20088;-80
2023/10/30 06:15:55;;;;;;;3.40;0.80;;;;;;;13.88;100.00;98283.44;4484688;32;20101;-80
2023/10/30 06:18:23;;;;;;;2.03;0.93;;;;;;;14.20;100.00;98281.66;4484520;32;20092;-80
2023/10/30 06:20:50;;;;;;;4.12;1.17;;;;;;;14.38;100.00;98281.41;4484700;31;20097;-80
2023/10/30 06:23:18;;;;;;;2.50;0.93;;;;;;;14.54;100.00;98283.12;4484520;32;20171;-80
2023/10/30 06:25:45;;;;;;;3.62;1.37;;;;;;;14.69;100.00;98288.50;4484611;32;20123;-81
2023/10/30 06:28:15;;;;;;;6.05;1.00;;;;;;;14.84;100.00;98289.38;4477936;32;20097;-80
2023/10/30 06:30:46;;;;;;;4.28;1.58;;;;;;;14.96;100.00;98286.31;4469058;32;20139;-80
2023/10/30 06:33:14;;;;;;;3.25;1.15;;;;;;;15.04;100.00;98292.34;4468938;32;20557;-80
2023/10/30 06:35:41;;;;;;;1.30;0.90;;;;;;;14.99;100.00;98293.87;4468410;32;20154;-80
2023/10/30 06:38:09;;;;;;;3.28;1.25;;;;;;;15.07;100.00;98288.53;4468765;32;20097;-80
2023/10/30 06:40:38;;;;;;;10.23;1.27;;;;;;;15.18;100.00;98295.22;4468772;32;20172;-80
2023/10/30 06:43:05;;;;;;;7.37;1.40;;;;;;;15.44;100.00;98294.78;4468843;32;20502;-80
2023/10/30 06:45:34;;;;;;;5.03;1.12;;;;;;;15.51;100.00;98310.75;4468810;32;20115;-80
2023/10/30 06:48:02;;;;;;;7.80;1.40;;;;;;;15.71;100.00;98303.91;4467952;32;20120;-81
2023/10/30 06:50:29;;;;;;;3.30;1.23;;;;;;;15.76;100.00;98312.12;4467878;32;20093;-80
2023/10/30 06:52:57;;;;;;;5.22;1.58;;;;;;;15.95;100.00;98312.62;4467869;32;20089;-81
2023/10/30 06:55:28;;;;;;;5.78;1.37;;;;;;;15.95;100.00;98313.44;4468765;32;20145;-81
2023/10/30 06:57:58;;;;;;;1.15;0.90;;;;;;;16.05;100.00;98321.09;4467433;32;20158;-81
2023/10/30 07:00:26;;;;;;;7.15;1.20;;;;;;;15.93;100.00;98320.72;4467610;32;20157;-81
2023/10/30 07:02:56;;;;;;;3.83;1.12;;;;;;;15.88;100.00;98325.75;4468329;32;20093;-81
2023/10/30 07:05:24;;;;;;;6.62;1.23;;;;;;;15.91;100.00;98317.47;4468842;32;20483;-81
2023/10/30 07:07:51;;;;;;;4.75;1.37;;;;;;;15.94;100.00;98317.09;4468550;32;20151;-81
2023/10/30 07:10:19;;;;;;;1.87;1.00;;;;;;;16.11;100.00;98309.78;4468579;32;20080;-81
2023/10/30 07:12:48;;;;;;;3.50;1.05;;;;;;;16.30;100.00;98312.84;4468074;32;20096;-81
2023/10/30 07:15:16;;;;;;;5.93;1.23;;;;;;;16.43;99.16;98320.94;4467952;32;20145;-81
2023/10/30 07:17:44;;;;;;;1.60;0.70;;;;;;;16.59;98.04;98317.25;4481456;32;20093;-81
2023/10/30 07:20:11;;;;;;;5.68;1.00;;;;;;;16.79;95.97;98309.53;4484044;32;20127;-81
2023/10/30 07:22:41;;;;;;;2.90;1.30;;;;;;;16.91;95.13;98317.00;4484470;32;20111;-81
2023/10/30 07:25:08;;;;;;;5.28;1.00;;;;;;;16.95;95.30;98320.91;4484151;32;20114;-81
2023/10/30 07:27:39;;;;;;;1.10;0.80;;;;;;;17.10;93.69;98328.78;4481181;32;20143;-81
2023/10/30 07:30:13;;;;;;;3.55;0.60;;;;;;;17.03;95.94;98326.91;4468723;32;20474;-81
2023/10/30 07:32:42;;;;;;;4.22;0.90;;;;;;;17.12;93.44;98327.59;4468348;32;20494;-81
2023/10/30 07:35:11;;;;;;;3.28;0.70;;;;;;;17.32;94.54;98335.69;4467149;32;20438;-81
2023/10/30 07:37:38;;;;;;;4.93;1.08;;;;;;;17.39;91.99;98333.09;4468228;32;20097;-81
2023/10/30 07:40:06;;;;;;;3.58;1.08;;;;;;;17.55;91.80;98338.09;4468398;32;20156;-81
2023/10/30 07:42:33;;;;;;;3.10;0.77;;;;;;;17.62;90.57;98329.38;4467940;32;20080;-81
2023/10/30 07:45:02;;;;;;;1.77;0.70;;;;;;;17.70;90.34;98331.91;4468105;32;20097;-81
2023/10/30 07:47:29;;;;;;;2.83;0.65;;;;;;;17.68;90.05;98342.69;4470098;32;20229;-81
2023/10/30 07:50:11;;;;;;;4.12;1.00;;;;;;;17.66;89.04;98333.28;4470416;32;20093;-80
2023/10/30 07:52:40;;;;;;;3.72;1.00;;;;;;;17.76;89.59;98338.22;4470176;32;20462;-81
2023/10/30 07:55:15;;;;;;;3.50;0.70;;;;;;;17.94;87.91;98340.41;4470139;32;20367;-81
2023/10/30 07:57:42;;;;;;;2.28;1.00;;;;;;;18.00;88.44;98343.12;4470277;32;20093;-81
2023/10/30 08:00:11;;;;;;;9.60;0.82;;;;;;;17.98;87.39;98346.97;4474027;32;20523;-81
2023/10/30 08:02:40;;;;;;;3.03;1.37;;;;;;;17.93;88.97;98341.44;4475068;32;20119;-81
2023/10/30 08:05:09;;;;;;;4.07;0.90;;;;;;;18.05;88.33;98353.94;4470194;32;20111;-80
2023/10/30 08:07:37;;;;;;;2.20;0.80;;;;;;;18.18;88.76;98349.72;4471319;32;20134;-81
2023/10/30 08:10:05;;;;;;;3.45;0.80;;;;;;;18.19;88.74;98341.56;4469554;32;20077;-81
2023/10/30 08:12:33;;;;;;;1.48;0.80;;;;;;;18.40;87.94;98338.00;4482250;32;20600;-81
2023/10/30 08:15:02;;;;;;;2.75;0.70;;;;;;;18.46;88.91;98346.19;4471908;32;20449;-81
2023/10/30 08:17:29;;;;;;;1.23;0.52;;;;;;;18.48;88.53;98352.91;4474317;32;20473;-81
2023/10/30 08:19:57;;;;;;;2.67;0.75;;;;;;;18.57;86.06;98354.37;4469643;32;20131;-80
2023/10/30 08:22:24;;;;;;;3.53;0.60;;;;;;;18.65;86.40;98348.06;4470005;32;20489;-80
2023/10/30 08:24:53;;;;;;;2.10;0.50;;;;;;;18.86;85.39;98339.16;4471664;32;20167;-80
2023/10/30 08:27:20;;;;;;;1.50;0.52;;;;;;;19.01;84.29;98343.50;4478224;32;20092;-80
2023/10/30 08:29:47;;;;;;;2.40;1.20;;;;;;;19.13;85.04;98341.88;4477201;32;20476;-80
2023/10/30 08:32:15;;;;;;;2.37;0.90;;;;;;;19.00;84.49;98341.84;4480280;32;20209;-80
2023/10/30 08:34:43;;;;;;;2.55;0.80;;;;;;;19.12;86.55;98337.56;4484671;32;20088;-80
2023/10/30 08:37:10;;;;;;;5.22;1.00;;;;;;;19.18;86.26;98339.41;4484340;32;20150;-80
2023/10/30 08:39:37;;;;;;;4.60;0.90;;;;;;;19.32;86.58;98346.37;4478989;31;20096;-80
2023/10/30 08:42:05;;;;;;;3.17;0.88;;;;;;;19.59;85.26;98342.88;4471633;32;20139;-80
2023/10/30 08:44:32;;;;;;;2.15;1.00;;;;;;;19.56;83.53;98351.28;4469115;32;20088;-80
2023/10/30 08:47:00;;;;;;;1.83;1.20;;;;;;;19.59;82.02;98350.88;4469909;32;20119;-80
2023/10/30 08:49:28;;;;;;;1.17;0.70;;;;;;;19.67;81.30;98350.66;4469698;32;20097;-80
2023/10/30 08:51:56;;;;;;;2.97;0.90;;;;;;;19.83;81.17;98341.47;4469242;32;20526;-80
2023/10/30 08:54:31;;;;;;;1.98;0.75;;;;;;;20.11;81.90;98343.03;4469666;32;20076;-80
2023/10/30 08:56:58;;;;;;;2.85;0.80;;;;;;;20.27;79.02;98345.22;4469661;32;20114;-80
2023/10/30 08:59:42;;;;;;;2.12;0.77;;;;;;;20.41;79.54;98345.16;4469963;32;20092;-80
2023/10/30 09:02:09;;;;;;;3.87;0.60;;;;;;;20.67;78.71;98334.44;4468290;32;20096;-80
2023/10/30 09:04:37;;;;;;;2.83;0.80;;;;;;;20.89;78.60;98337.59;4469425;32;20575;-80
2023/10/30 09:07:05;;;;;;;3.05;1.00;;;;;;;21.06;78.25;98351.22;4469224;32;20104;-80
2023/10/30 09:09:33;;;;;;;0.98;0.57;;;;;;;21.17;77.33;98354.22;4469016;32;20476;-81
2023/10/30 09:12:00;;;;;;;5.72;0.65;;;;;;;21.40;76.11;98351.75;4469474;32;20532;-80
2023/10/30 09:14:30;;;;;;;1.98;0.57;;;;;;;21.50;74.71;98347.81;4469207;32;20092;-80
2023/10/30 09:16:57;;;;;;;3.47;0.80;;;;;;;21.38;74.89;98347.72;4469142;32;20108;-80
2023/10/30 09:19:25;;;;;;;1.35;0.60;;;;;;;21.44;75.40;98352.97;4469281;32;20100;-80
2023/10/30 09:21:56;;;;;;;2.10;0.70;;;;;;;21.39;76.11;98342.16;4468632;32;20119;-80
2023/10/30 09:24:23;;;;;;;3.00;0.75;;;;;;;21.54;75.14;98357.03;4469190;32;20435;-80
2023/10/30 09:26:51;;;;;;;5.35;0.80;;;;;;;21.68;76.54;98368.38;4469069;32;20525;-80
2023/10/30 09:29:19;;;;;;;4.62;0.95;;;;;;;21.72;74.48;98372.25;4482767;32;20480;-82
2023/10/30 09:31:49;;;;;;;2.90;0.70;;;;;;;21.77;74.37;98381.22;4484530;32;20164;-81
2023/10/30 09:34:17;;;;;;;3.33;0.60;;;;;;;22.11;76.74;98370.22;4484258;31;20116;-82
2023/10/30 09:36:45;;;;;;;2.80;1.02;;;;;;;22.23;74.43;98373.78;4483792;31;20783;-81
2023/10/30 09:39:12;;;;;;;1.05;0.47;;;;;;;22.14;72.23;98370.59;4483799;31;20118;-81
2023/10/30 09:41:43;;;;;;;2.60;0.60;;;;;;;22.03;72.59;98374.00;4483414;32;20499;-81
2023/10/30 09:44:13;;;;;;;2.60;0.60;;;;;;;21.76;73.33;98376.91;4483357;31;20110;-81
2023/10/30 09:46:41;;;;;;;4.18;1.10;;;;;;;21.38;74.15;98371.69;4483756;31;20409;-81
2023/10/30 09:49:13;;;;;;;2.05;0.62;;;;;;;21.43;74.75;98363.84;4482567;32;20564;-81
2023/10/30 09:51:43;;;;;;;1.95;0.70;;;;;;;21.41;74.82;98360.59;4483004;32;20155;-82
2023/10/30 09:54:12;;;;;;;1.48;0.57;;;;;;;21.40;73.98;98364.28;4483212;32;20136;-82
2023/10/30 09:56:40;;;;;;;5.75;0.75;;;;;;;21.57;78.29;98368.03;4483272;32;20170;-81
2023/10/30 09:59:08;;;;;;;2.42;0.62;;;;;;;21.86;77.06;98380.94;4484804;31;20155;-82
2023/10/30 10:01:37;;;;;;;2.37;0.75;;;;;;;21.87;74.61;98366.56;4484269;31;20096;-81
2023/10/30 10:04:07;;;;;;;1.70;0.98;;;;;;;21.78;74.52;98366.84;4484508;32;20611;-81
2023/10/30 10:06:40;;;;;;;1.15;0.52;;;;;;;21.68;75.57;98358.56;4484563;32;20155;-81
2023/10/30 10:09:08;;;;;;;2.50;0.77;;;;;;;21.55;74.92;98353.31;4482601;32;20405;-82
2023/10/30 10:11:37;;;;;;;2.08;0.80;;;;;;;21.39;74.80;98352.81;4484364;32;20138;-81
2023/10/30 10:14:04;;;;;;;8.75;0.90;;;;;;;21.38;76.70;98345.84;4484461;31;20359;-82
2023/10/30 10:16:36;;;;;;;3.10;0.90;;;;;;;21.42;75.99;98354.22;4477240;32;20109;-81
2023/10/30 10:19:34;;;;;;;3.72;1.00;;;;;;;21.27;75.28;98346.53;4468615;32;20124;-81
2023/10/30 10:22:01;;;;;;;3.87;1.05;;;;;;;21.15;77.18;98348.28;4420120;32;20199;-82
2023/10/30 10:24:30;;;;;;;6.30;1.23;;;;;;;21.20;75.29;98348.47;4418741;32;20090;-81
2023/10/30 10:27:03;;;;;;;2.50;1.12;;;;;;;21.17;77.21;98340.91;4418599;32;20300;-81
2023/10/30 10:29:32;;;;;;;3.80;1.62;;;;;;;21.18;75.37;98348.66;4404289;32;20140;-81
2023/10/30 10:32:01;;;;;;;4.00;1.65;;;;;;;21.26;76.19;98356.38;4403716;32;20094;-82
2023/10/30 10:34:31;;;;;;;2.42;1.10;;;;;;;21.39;75.93;98358.16;4403414;32;20112;-81
2023/10/30 10:37:01;;;;;;;5.60;2.60;;;;;;;21.35;74.54;98366.78;4402989;32;20141;-81
2023/10/30 10:39:47;;;;;;;1.80;0.93;;;;;;;21.39;76.10;98360.81;4402892;32;20179;-81
2023/10/30 10:42:18;;;;;;;4.33;0.83;;;;;;;21.25;74.61;98365.41;4404494;32;20156;-81
2023/10/30 10:44:47;;;;;;;6.55;0.95;;;;;;;21.28;74.58;98364.16;4404285;32;20171;-81
2023/10/30 10:47:16;;;;;;;3.95;0.88;;;;;;;21.34;75.68;98352.63;4403892;32;20118;-81
2023/10/30 10:49:44;;;;;;;6.80;1.20;;;;;;;21.35;74.03;98356.94;4415053;32;20271;-81
2023/10/30 10:52:14;;;;;;;3.10;0.80;;;;;;;21.28;75.29;98342.84;4404612;32;20148;-80
2023/10/30 10:54:53;;;;;;;2.58;0.73;;;;;;;21.36;75.65;98350.59;4403341;32;20094;-81
2023/10/30 10:57:21;;;;;;;2.17;0.65;;;;;;;21.34;75.85;98339.31;4403386;32;20329;-82
2023/10/30 11:00:00;;;;;;;2.80;0.80;;;;;;;21.47;75.46;98332.22;4465189;32;20096;-80
2023/10/30 11:02:31;;;;;;;2.10;0.75;;;;;;;21.59;74.75;98333.19;4465832;32;20089;-80
2023/10/30 11:04:59;;;;;;;7.87;1.65;;;;;;;21.72;74.83;98346.37;4467063;32;20123;-82
2023/10/30 11:07:31;;;;;;;4.32;0.80;;;;;;;21.79;73.44;98333.00;4467262;32;20115;-80
2023/10/30 11:10:03;;;;;;;2.87;0.77;;;;;;;21.73;73.62;98333.91;4467423;32;20141;-82
2023/10/30 11:13:28;;;;;;;2.85;0.90;;;;;;;21.41;74.23;98329.41;4470930;32;20107;-82
2023/10/30 11:16:09;;;;;;;3.25;0.93;;;;;;;21.50;75.31;98335.34;4426147;32;20081;-81
2023/10/30 11:18:37;;;;;;;5.30;0.75;;;;;;;21.63;74.75;98331.72;4427262;32;20123;-79
2023/10/30 11:21:11;;;;;;;3.35;0.80;;;;;;;21.59;74.67;98322.50;4425095;32;20109;-80
2023/10/30 11:23:45;;;;;;;3.67;0.80;;;;;;;21.67;73.49;98324.13;4425873;32;20148;-83
2023/10/30 11:26:38;;;;;;;1.95;0.82;;;;;;;21.65;73.57;98320.84;4426075;32;20132;-83
2023/10/30 11:29:08;;;;;;;1.65;0.73;;;;;;;21.70;74.41;98321.81;4426168;32;20101;-81
2023/10/30 11:31:51;;;;;;;;;;;;;;;21.72;74.29;98314.41;4425701;32;20163;-83
2023/10/30 11:34:28;;;;;;;3.65;0.93;;;;;;;21.56;76.03;98312.28;4423303;32;19989;-82
2023/10/30 11:37:00;;;;;;;5.35;0.80;;;;;;;21.66;76.16;98299.28;4419485;32;20537;-81